sensor_id;sensor_type;location;lat;lon;timestamp;P1;durP1;ratioP1;P2;durP2;ratioP2
36379;SDS011;22411;53.016;18.632;2023-07-29T00:01:42;4.75;;;4.35;;
36379;SDS011;22411;53.016;18.632;2023-07-29T00:04:08;4.57;;;3.88;;
36379;SDS011;22411;53.016;18.632;2023-07-29T00:06:34;4.68;;;4.13;;
36379;SDS011;22411;53.016;18.632;2023-07-29T00:09:01;4.45;;;4.05;;
36379;SDS011;22411;53.016;18.632;2023-07-29T00:11:27;4.43;;;4.03;;
36379;SDS011;22411;53.016;18.632;2023-07-29T00:13:53;5.07;;;4.68;;
36379;SDS011;22411;53.016;18.632;2023-07-29T00:16:19;4.72;;;4.35;;
36379;SDS011;22411;53.016;18.632;2023-07-29T00:18:50;4.50;;;4.18;;
36379;SDS011;22411;53.016;18.632;2023-07-29T00:21:16;4.80;;;4.40;;
36379;SDS011;22411;53.016;18.632;2023-07-29T00:23:42;4.82;;;4.43;;
36379;SDS011;22411;53.016;18.632;2023-07-29T00:26:07;5.50;;;5.00;;
36379;SDS011;22411;53.016;18.632;2023-07-29T00:28:33;4.82;;;4.43;;
36379;SDS011;22411;53.016;18.632;2023-07-29T00:30:59;6.65;;;5.25;;
36379;SDS011;22411;53.016;18.632;2023-07-29T00:33:25;5.50;;;5.10;;
36379;SDS011;22411;53.016;18.632;2023-07-29T00:35:50;4.63;;;4.22;;
36379;SDS011;22411;53.016;18.632;2023-07-29T00:38:16;6.07;;;5.00;;
36379;SDS011;22411;53.016;18.632;2023-07-29T00:40:42;6.45;;;5.85;;
36379;SDS011;22411;53.016;18.632;2023-07-29T00:43:08;5.30;;;4.82;;
36379;SDS011;22411;53.016;18.632;2023-07-29T00:45:33;5.90;;;5.25;;
36379;SDS011;22411;53.016;18.632;2023-07-29T00:48:00;6.00;;;4.68;;
36379;SDS011;22411;53.016;18.632;2023-07-29T00:50:26;5.43;;;4.97;;
36379;SDS011;22411;53.016;18.632;2023-07-29T00:52:55;5.40;;;4.97;;
36379;SDS011;22411;53.016;18.632;2023-07-29T00:55:21;5.78;;;5.32;;
36379;SDS011;22411;53.016;18.632;2023-07-29T00:57:47;6.30;;;5.80;;
36379;SDS011;22411;53.016;18.632;2023-07-29T01:00:15;5.90;;;5.40;;
36379;SDS011;22411;53.016;18.632;2023-07-29T01:02:44;6.18;;;5.57;;
36379;SDS011;22411;53.016;18.632;2023-07-29T01:05:11;6.05;;;5.55;;
36379;SDS011;22411;53.016;18.632;2023-07-29T01:07:59;5.30;;;4.90;;
36379;SDS011;22411;53.016;18.632;2023-07-29T01:13:48;5.70;;;5.13;;
36379;SDS011;22411;53.016;18.632;2023-07-29T01:16:26;6.00;;;5.50;;
36379;SDS011;22411;53.016;18.632;2023-07-29T01:18:57;6.05;;;5.55;;
36379;SDS011;22411;53.016;18.632;2023-07-29T01:21:29;6.28;;;5.78;;
36379;SDS011;22411;53.016;18.632;2023-07-29T01:23:59;6.15;;;5.65;;
36379;SDS011;22411;53.016;18.632;2023-07-29T01:26:25;6.53;;;5.95;;
36379;SDS011;22411;53.016;18.632;2023-07-29T01:28:50;5.95;;;5.43;;
36379;SDS011;22411;53.016;18.632;2023-07-29T01:31:19;6.30;;;5.80;;
36379;SDS011;22411;53.016;18.632;2023-07-29T01:33:57;6.30;;;5.68;;
36379;SDS011;22411;53.016;18.632;2023-07-29T01:36:27;5.93;;;5.43;;
36379;SDS011;22411;53.016;18.632;2023-07-29T01:38:55;6.65;;;6.05;;
36379;SDS011;22411;53.016;18.632;2023-07-29T01:41:22;6.65;;;6.05;;
36379;SDS011;22411;53.016;18.632;2023-07-29T01:43:50;5.80;;;5.30;;
36379;SDS011;22411;53.016;18.632;2023-07-29T01:46:17;6.45;;;5.95;;
36379;SDS011;22411;53.016;18.632;2023-07-29T01:48:43;5.25;;;4.80;;
36379;SDS011;22411;53.016;18.632;2023-07-29T01:51:11;6.85;;;6.35;;
36379;SDS011;22411;53.016;18.632;2023-07-29T01:53:37;5.85;;;5.45;;
36379;SDS011;22411;53.016;18.632;2023-07-29T01:56:03;5.75;;;5.25;;
36379;SDS011;22411;53.016;18.632;2023-07-29T01:58:29;5.40;;;4.95;;
36379;SDS011;22411;53.016;18.632;2023-07-29T02:00:54;6.10;;;5.50;;
36379;SDS011;22411;53.016;18.632;2023-07-29T02:03:20;6.07;;;5.47;;
36379;SDS011;22411;53.016;18.632;2023-07-29T02:05:45;7.03;;;6.32;;
36379;SDS011;22411;53.016;18.632;2023-07-29T02:08:11;6.45;;;5.45;;
36379;SDS011;22411;53.016;18.632;2023-07-29T02:10:37;7.28;;;6.60;;
36379;SDS011;22411;53.016;18.632;2023-07-29T02:13:03;5.90;;;5.40;;
36379;SDS011;22411;53.016;18.632;2023-07-29T02:15:29;6.22;;;5.63;;
36379;SDS011;22411;53.016;18.632;2023-07-29T02:17:55;7.68;;;6.32;;
36379;SDS011;22411;53.016;18.632;2023-07-29T02:20:20;6.47;;;5.90;;
36379;SDS011;22411;53.016;18.632;2023-07-29T02:22:46;6.68;;;6.18;;
36379;SDS011;22411;53.016;18.632;2023-07-29T02:25:13;6.78;;;6.18;;
36379;SDS011;22411;53.016;18.632;2023-07-29T02:27:39;6.18;;;5.40;;
36379;SDS011;22411;53.016;18.632;2023-07-29T02:30:05;6.32;;;5.75;;
36379;SDS011;22411;53.016;18.632;2023-07-29T02:32:31;6.53;;;6.03;;
36379;SDS011;22411;53.016;18.632;2023-07-29T02:34:57;6.07;;;5.47;;
36379;SDS011;22411;53.016;18.632;2023-07-29T02:37:23;6.95;;;6.30;;
36379;SDS011;22411;53.016;18.632;2023-07-29T02:39:48;6.15;;;5.30;;
36379;SDS011;22411;53.016;18.632;2023-07-29T02:42:14;7.00;;;6.40;;
36379;SDS011;22411;53.016;18.632;2023-07-29T02:44:40;7.22;;;5.93;;
36379;SDS011;22411;53.016;18.632;2023-07-29T02:47:06;7.18;;;6.43;;
36379;SDS011;22411;53.016;18.632;2023-07-29T02:49:31;9.55;;;6.45;;
36379;SDS011;22411;53.016;18.632;2023-07-29T02:51:57;6.97;;;6.38;;
36379;SDS011;22411;53.016;18.632;2023-07-29T02:54:22;7.28;;;6.55;;
36379;SDS011;22411;53.016;18.632;2023-07-29T02:56:49;6.97;;;6.38;;
36379;SDS011;22411;53.016;18.632;2023-07-29T02:59:15;11.25;;;7.43;;
36379;SDS011;22411;53.016;18.632;2023-07-29T03:01:41;7.35;;;6.75;;
36379;SDS011;22411;53.016;18.632;2023-07-29T03:04:07;8.23;;;7.07;;
36379;SDS011;22411;53.016;18.632;2023-07-29T03:06:33;6.63;;;6.07;;
36379;SDS011;22411;53.016;18.632;2023-07-29T03:08:59;6.88;;;6.38;;
36379;SDS011;22411;53.016;18.632;2023-07-29T03:11:24;8.82;;;6.50;;
36379;SDS011;22411;53.016;18.632;2023-07-29T03:13:50;7.75;;;6.95;;
36379;SDS011;22411;53.016;18.632;2023-07-29T03:16:16;7.90;;;7.10;;
36379;SDS011;22411;53.016;18.632;2023-07-29T03:18:43;8.15;;;7.40;;
36379;SDS011;22411;53.016;18.632;2023-07-29T03:21:09;8.13;;;7.32;;
36379;SDS011;22411;53.016;18.632;2023-07-29T03:23:36;7.70;;;7.00;;
36379;SDS011;22411;53.016;18.632;2023-07-29T03:26:03;6.82;;;6.22;;
36379;SDS011;22411;53.016;18.632;2023-07-29T03:28:35;7.28;;;6.57;;
36379;SDS011;22411;53.016;18.632;2023-07-29T03:31:02;8.00;;;7.30;;
36379;SDS011;22411;53.016;18.632;2023-07-29T03:33:28;7.90;;;7.20;;
36379;SDS011;22411;53.016;18.632;2023-07-29T03:35:54;9.25;;;7.03;;
36379;SDS011;22411;53.016;18.632;2023-07-29T03:38:19;7.60;;;6.88;;
36379;SDS011;22411;53.016;18.632;2023-07-29T03:40:45;7.93;;;7.20;;
36379;SDS011;22411;53.016;18.632;2023-07-29T03:43:11;7.82;;;7.13;;
36379;SDS011;22411;53.016;18.632;2023-07-29T03:45:37;15.60;;;8.60;;
36379;SDS011;22411;53.016;18.632;2023-07-29T03:48:03;9.05;;;8.15;;
36379;SDS011;22411;53.016;18.632;2023-07-29T03:50:29;11.95;;;8.55;;
36379;SDS011;22411;53.016;18.632;2023-07-29T03:52:55;9.45;;;8.05;;
36379;SDS011;22411;53.016;18.632;2023-07-29T03:55:21;9.15;;;8.25;;
36379;SDS011;22411;53.016;18.632;2023-07-29T03:57:47;9.35;;;8.32;;
36379;SDS011;22411;53.016;18.632;2023-07-29T04:00:13;8.07;;;7.38;;
36379;SDS011;22411;53.016;18.632;2023-07-29T04:02:39;34.17;;;9.70;;
36379;SDS011;22411;53.016;18.632;2023-07-29T04:05:07;8.88;;;7.25;;
36379;SDS011;22411;53.016;18.632;2023-07-29T04:07:35;12.27;;;7.72;;
36379;SDS011;22411;53.016;18.632;2023-07-29T04:10:06;19.92;;;9.00;;
36379;SDS011;22411;53.016;18.632;2023-07-29T04:12:32;12.18;;;9.07;;
36379;SDS011;22411;53.016;18.632;2023-07-29T04:14:58;8.68;;;7.85;;
36379;SDS011;22411;53.016;18.632;2023-07-29T04:17:23;17.88;;;7.97;;
36379;SDS011;22411;53.016;18.632;2023-07-29T04:19:49;16.33;;;7.95;;
36379;SDS011;22411;53.016;18.632;2023-07-29T04:22:15;8.23;;;7.53;;
36379;SDS011;22411;53.016;18.632;2023-07-29T04:24:41;14.35;;;7.10;;
36379;SDS011;22411;53.016;18.632;2023-07-29T04:27:07;8.00;;;7.20;;
36379;SDS011;22411;53.016;18.632;2023-07-29T04:29:33;9.02;;;8.25;;
36379;SDS011;22411;53.016;18.632;2023-07-29T04:32:00;13.88;;;9.57;;
36379;SDS011;22411;53.016;18.632;2023-07-29T04:34:27;13.20;;;7.93;;
36379;SDS011;22411;53.016;18.632;2023-07-29T04:36:52;13.50;;;8.65;;
36379;SDS011;22411;53.016;18.632;2023-07-29T04:39:18;31.05;;;7.43;;
36379;SDS011;22411;53.016;18.632;2023-07-29T04:41:44;19.98;;;8.35;;
36379;SDS011;22411;53.016;18.632;2023-07-29T04:44:10;11.27;;;7.32;;
36379;SDS011;22411;53.016;18.632;2023-07-29T04:46:35;8.63;;;7.45;;
36379;SDS011;22411;53.016;18.632;2023-07-29T04:49:02;7.90;;;7.18;;
36379;SDS011;22411;53.016;18.632;2023-07-29T04:51:27;21.60;;;8.35;;
36379;SDS011;22411;53.016;18.632;2023-07-29T04:53:53;19.25;;;8.95;;
36379;SDS011;22411;53.016;18.632;2023-07-29T04:56:19;114.25;;;15.13;;
36379;SDS011;22411;53.016;18.632;2023-07-29T04:58:45;9.85;;;8.95;;
36379;SDS011;22411;53.016;18.632;2023-07-29T05:01:11;17.60;;;10.52;;
36379;SDS011;22411;53.016;18.632;2023-07-29T05:03:36;12.10;;;10.95;;
36379;SDS011;22411;53.016;18.632;2023-07-29T05:06:03;10.90;;;9.80;;
36379;SDS011;22411;53.016;18.632;2023-07-29T05:08:29;11.15;;;10.07;;
36379;SDS011;22411;53.016;18.632;2023-07-29T05:10:54;10.43;;;9.40;;
36379;SDS011;22411;53.016;18.632;2023-07-29T05:13:21;10.70;;;9.68;;
36379;SDS011;22411;53.016;18.632;2023-07-29T05:15:47;10.63;;;9.52;;
36379;SDS011;22411;53.016;18.632;2023-07-29T05:18:14;10.20;;;9.18;;
36379;SDS011;22411;53.016;18.632;2023-07-29T05:20:40;9.35;;;8.55;;
36379;SDS011;22411;53.016;18.632;2023-07-29T05:23:06;10.35;;;9.35;;
36379;SDS011;22411;53.016;18.632;2023-07-29T05:25:32;9.75;;;8.75;;
36379;SDS011;22411;53.016;18.632;2023-07-29T05:28:03;9.73;;;8.73;;
36379;SDS011;22411;53.016;18.632;2023-07-29T05:30:29;11.48;;;9.48;;
36379;SDS011;22411;53.016;18.632;2023-07-29T05:32:57;9.90;;;9.02;;
36379;SDS011;22411;53.016;18.632;2023-07-29T05:35:23;11.23;;;10.13;;
36379;SDS011;22411;53.016;18.632;2023-07-29T05:37:49;10.65;;;9.55;;
36379;SDS011;22411;53.016;18.632;2023-07-29T05:40:15;10.50;;;9.50;;
36379;SDS011;22411;53.016;18.632;2023-07-29T05:42:41;9.18;;;8.27;;
36379;SDS011;22411;53.016;18.632;2023-07-29T05:45:07;10.30;;;9.40;;
36379;SDS011;22411;53.016;18.632;2023-07-29T05:47:33;11.48;;;10.48;;
36379;SDS011;22411;53.016;18.632;2023-07-29T05:49:58;10.05;;;9.23;;
36379;SDS011;22411;53.016;18.632;2023-07-29T05:52:25;11.02;;;10.02;;
36379;SDS011;22411;53.016;18.632;2023-07-29T05:54:51;10.98;;;9.98;;
36379;SDS011;22411;53.016;18.632;2023-07-29T05:57:16;11.13;;;10.13;;
36379;SDS011;22411;53.016;18.632;2023-07-29T05:59:42;11.50;;;10.30;;
36379;SDS011;22411;53.016;18.632;2023-07-29T06:02:08;11.32;;;10.23;;
36379;SDS011;22411;53.016;18.632;2023-07-29T06:04:33;11.85;;;10.75;;
36379;SDS011;22411;53.016;18.632;2023-07-29T06:06:59;13.68;;;10.85;;
36379;SDS011;22411;53.016;18.632;2023-07-29T06:09:24;14.23;;;12.38;;
36379;SDS011;22411;53.016;18.632;2023-07-29T06:11:53;15.23;;;13.80;;
36379;SDS011;22411;53.016;18.632;2023-07-29T06:14:18;13.25;;;11.85;;
36379;SDS011;22411;53.016;18.632;2023-07-29T06:16:44;12.95;;;11.75;;
36379;SDS011;22411;53.016;18.632;2023-07-29T06:19:10;14.73;;;12.13;;
36379;SDS011;22411;53.016;18.632;2023-07-29T06:21:35;13.60;;;12.23;;
36379;SDS011;22411;53.016;18.632;2023-07-29T06:24:01;16.10;;;14.55;;
36379;SDS011;22411;53.016;18.632;2023-07-29T06:26:27;16.10;;;14.60;;
36379;SDS011;22411;53.016;18.632;2023-07-29T06:28:53;16.80;;;13.80;;
36379;SDS011;22411;53.016;18.632;2023-07-29T06:31:19;15.98;;;14.27;;
36379;SDS011;22411;53.016;18.632;2023-07-29T06:33:45;16.15;;;14.15;;
36379;SDS011;22411;53.016;18.632;2023-07-29T06:36:11;15.48;;;13.90;;
36379;SDS011;22411;53.016;18.632;2023-07-29T06:38:37;18.27;;;16.08;;
36379;SDS011;22411;53.016;18.632;2023-07-29T06:41:04;16.13;;;13.48;;
36379;SDS011;22411;53.016;18.632;2023-07-29T06:43:30;19.27;;;15.45;;
36379;SDS011;22411;53.016;18.632;2023-07-29T06:45:55;17.60;;;15.70;;
36379;SDS011;22411;53.016;18.632;2023-07-29T06:48:21;17.23;;;15.43;;
36379;SDS011;22411;53.016;18.632;2023-07-29T06:50:47;18.25;;;16.30;;
36379;SDS011;22411;53.016;18.632;2023-07-29T06:53:12;15.00;;;13.55;;
36379;SDS011;22411;53.016;18.632;2023-07-29T06:55:38;15.15;;;13.63;;
36379;SDS011;22411;53.016;18.632;2023-07-29T06:58:05;14.15;;;12.85;;
36379;SDS011;22411;53.016;18.632;2023-07-29T07:00:30;15.27;;;13.85;;
36379;SDS011;22411;53.016;18.632;2023-07-29T07:02:56;13.18;;;11.90;;
36379;SDS011;22411;53.016;18.632;2023-07-29T07:05:22;13.30;;;11.85;;
36379;SDS011;22411;53.016;18.632;2023-07-29T07:07:47;12.82;;;11.32;;
36379;SDS011;22411;53.016;18.632;2023-07-29T07:10:13;10.05;;;9.25;;
36379;SDS011;22411;53.016;18.632;2023-07-29T07:12:39;9.75;;;8.95;;
36379;SDS011;22411;53.016;18.632;2023-07-29T07:15:05;9.23;;;8.32;;
36379;SDS011;22411;53.016;18.632;2023-07-29T07:17:31;8.32;;;7.53;;
36379;SDS011;22411;53.016;18.632;2023-07-29T07:19:57;8.82;;;8.10;;
36379;SDS011;22411;53.016;18.632;2023-07-29T07:22:22;6.85;;;6.28;;
36379;SDS011;22411;53.016;18.632;2023-07-29T07:24:49;5.80;;;5.30;;
36379;SDS011;22411;53.016;18.632;2023-07-29T07:27:14;4.97;;;4.55;;
36379;SDS011;22411;53.016;18.632;2023-07-29T07:29:40;5.85;;;5.28;;
36379;SDS011;22411;53.016;18.632;2023-07-29T07:32:06;4.78;;;4.38;;
36379;SDS011;22411;53.016;18.632;2023-07-29T07:34:32;4.20;;;3.80;;
36379;SDS011;22411;53.016;18.632;2023-07-29T07:36:58;6.93;;;4.50;;
36379;SDS011;22411;53.016;18.632;2023-07-29T07:39:24;5.85;;;3.65;;
36379;SDS011;22411;53.016;18.632;2023-07-29T07:41:49;4.55;;;3.40;;
36379;SDS011;22411;53.016;18.632;2023-07-29T07:44:15;4.55;;;3.55;;
36379;SDS011;22411;53.016;18.632;2023-07-29T07:46:43;3.58;;;3.05;;
36379;SDS011;22411;53.016;18.632;2023-07-29T07:49:09;2.10;;;1.48;;
36379;SDS011;22411;53.016;18.632;2023-07-29T07:51:35;2.00;;;1.02;;
36379;SDS011;22411;53.016;18.632;2023-07-29T07:54:00;1.40;;;0.90;;
36379;SDS011;22411;53.016;18.632;2023-07-29T07:56:26;1.45;;;1.10;;
36379;SDS011;22411;53.016;18.632;2023-07-29T07:58:55;1.65;;;1.27;;
36379;SDS011;22411;53.016;18.632;2023-07-29T08:01:20;2.58;;;1.60;;
36379;SDS011;22411;53.016;18.632;2023-07-29T08:03:46;2.58;;;1.33;;
36379;SDS011;22411;53.016;18.632;2023-07-29T08:06:12;1.85;;;1.42;;
36379;SDS011;22411;53.016;18.632;2023-07-29T08:08:38;1.92;;;1.00;;
36379;SDS011;22411;53.016;18.632;2023-07-29T08:11:03;1.50;;;0.80;;
36379;SDS011;22411;53.016;18.632;2023-07-29T08:13:29;1.55;;;0.70;;
36379;SDS011;22411;53.016;18.632;2023-07-29T08:15:55;0.93;;;0.55;;
36379;SDS011;22411;53.016;18.632;2023-07-29T08:18:20;0.90;;;0.43;;
36379;SDS011;22411;53.016;18.632;2023-07-29T08:20:58;1.50;;;0.82;;
36379;SDS011;22411;53.016;18.632;2023-07-29T08:23:28;1.27;;;0.93;;
36379;SDS011;22411;53.016;18.632;2023-07-29T08:25:59;1.55;;;0.52;;
36379;SDS011;22411;53.016;18.632;2023-07-29T08:28:30;1.98;;;0.68;;
36379;SDS011;22411;53.016;18.632;2023-07-29T08:31:00;2.13;;;0.65;;
36379;SDS011;22411;53.016;18.632;2023-07-29T08:33:26;4.88;;;0.60;;
36379;SDS011;22411;53.016;18.632;2023-07-29T08:35:52;1.10;;;0.50;;
36379;SDS011;22411;53.016;18.632;2023-07-29T08:38:18;1.95;;;0.70;;
36379;SDS011;22411;53.016;18.632;2023-07-29T08:41:04;1.38;;;0.50;;
36379;SDS011;22411;53.016;18.632;2023-07-29T08:43:35;2.60;;;0.60;;
36379;SDS011;22411;53.016;18.632;2023-07-29T08:46:04;4.63;;;0.65;;
36379;SDS011;22411;53.016;18.632;2023-07-29T08:48:41;2.20;;;0.85;;
36379;SDS011;22411;53.016;18.632;2023-07-29T08:51:08;3.72;;;3.08;;
36379;SDS011;22411;53.016;18.632;2023-07-29T08:53:36;2.92;;;0.70;;
36379;SDS011;22411;53.016;18.632;2023-07-29T08:56:02;3.00;;;1.10;;
36379;SDS011;22411;53.016;18.632;2023-07-29T08:58:28;3.33;;;0.88;;
36379;SDS011;22411;53.016;18.632;2023-07-29T09:00:54;3.05;;;0.95;;
36379;SDS011;22411;53.016;18.632;2023-07-29T09:03:20;2.58;;;0.90;;
36379;SDS011;22411;53.016;18.632;2023-07-29T09:05:46;1.50;;;0.60;;
36379;SDS011;22411;53.016;18.632;2023-07-29T09:08:13;4.05;;;1.20;;
36379;SDS011;22411;53.016;18.632;2023-07-29T09:10:39;7.97;;;1.75;;
36379;SDS011;22411;53.016;18.632;2023-07-29T09:13:07;4.60;;;2.28;;
36379;SDS011;22411;53.016;18.632;2023-07-29T09:15:36;2.65;;;0.57;;
36379;SDS011;22411;53.016;18.632;2023-07-29T09:18:09;1.88;;;0.50;;
36379;SDS011;22411;53.016;18.632;2023-07-29T09:20:35;2.72;;;0.80;;
36379;SDS011;22411;53.016;18.632;2023-07-29T09:23:01;1.58;;;0.60;;
36379;SDS011;22411;53.016;18.632;2023-07-29T09:25:28;2.28;;;0.68;;
36379;SDS011;22411;53.016;18.632;2023-07-29T09:28:01;1.42;;;0.40;;
36379;SDS011;22411;53.016;18.632;2023-07-29T09:30:27;2.47;;;0.80;;
36379;SDS011;22411;53.016;18.632;2023-07-29T09:32:56;1.00;;;0.40;;
36379;SDS011;22411;53.016;18.632;2023-07-29T09:35:23;0.88;;;0.32;;
36379;SDS011;22411;53.016;18.632;2023-07-29T09:37:50;1.35;;;0.50;;
36379;SDS011;22411;53.016;18.632;2023-07-29T09:40:16;1.42;;;0.52;;
36379;SDS011;22411;53.016;18.632;2023-07-29T09:42:53;1.00;;;0.40;;
36379;SDS011;22411;53.016;18.632;2023-07-29T09:45:26;1.77;;;0.40;;
36379;SDS011;22411;53.016;18.632;2023-07-29T09:47:53;1.48;;;0.40;;
36379;SDS011;22411;53.016;18.632;2023-07-29T09:50:22;2.25;;;0.40;;
36379;SDS011;22411;53.016;18.632;2023-07-29T09:52:49;4.27;;;0.47;;
36379;SDS011;22411;53.016;18.632;2023-07-29T09:55:22;0.77;;;0.30;;
36379;SDS011;22411;53.016;18.632;2023-07-29T09:57:58;1.85;;;0.35;;
36379;SDS011;22411;53.016;18.632;2023-07-29T10:00:30;2.08;;;0.30;;
36379;SDS011;22411;53.016;18.632;2023-07-29T10:02:57;0.57;;;0.30;;
36379;SDS011;22411;53.016;18.632;2023-07-29T10:05:27;0.55;;;0.20;;
36379;SDS011;22411;53.016;18.632;2023-07-29T10:07:54;0.65;;;0.30;;
36379;SDS011;22411;53.016;18.632;2023-07-29T10:10:21;0.60;;;0.30;;
36379;SDS011;22411;53.016;18.632;2023-07-29T10:12:47;1.00;;;0.30;;
36379;SDS011;22411;53.016;18.632;2023-07-29T10:15:12;0.73;;;0.30;;
36379;SDS011;22411;53.016;18.632;2023-07-29T10:17:39;1.13;;;0.50;;
36379;SDS011;22411;53.016;18.632;2023-07-29T10:20:06;0.70;;;0.20;;
36379;SDS011;22411;53.016;18.632;2023-07-29T10:22:37;0.50;;;0.30;;
36379;SDS011;22411;53.016;18.632;2023-07-29T10:25:16;0.73;;;0.30;;
36379;SDS011;22411;53.016;18.632;2023-07-29T10:27:43;0.98;;;0.20;;
36379;SDS011;22411;53.016;18.632;2023-07-29T10:30:16;0.70;;;0.20;;
36379;SDS011;22411;53.016;18.632;2023-07-29T10:32:43;0.60;;;0.28;;
36379;SDS011;22411;53.016;18.632;2023-07-29T10:35:10;0.70;;;0.22;;
36379;SDS011;22411;53.016;18.632;2023-07-29T10:37:37;1.05;;;0.20;;
36379;SDS011;22411;53.016;18.632;2023-07-29T10:40:07;1.05;;;0.28;;
36379;SDS011;22411;53.016;18.632;2023-07-29T10:45:02;0.70;;;0.38;;
36379;SDS011;22411;53.016;18.632;2023-07-29T10:47:43;1.27;;;0.38;;
36379;SDS011;22411;53.016;18.632;2023-07-29T10:50:16;2.65;;;0.30;;
36379;SDS011;22411;53.016;18.632;2023-07-29T10:52:43;1.30;;;0.20;;
36379;SDS011;22411;53.016;18.632;2023-07-29T10:55:25;0.50;;;0.20;;
36379;SDS011;22411;53.016;18.632;2023-07-29T10:57:51;0.68;;;0.30;;
36379;SDS011;22411;53.016;18.632;2023-07-29T11:00:19;0.50;;;0.20;;
36379;SDS011;22411;53.016;18.632;2023-07-29T11:02:56;1.20;;;0.50;;
36379;SDS011;22411;53.016;18.632;2023-07-29T11:05:41;5.22;;;0.40;;
36379;SDS011;22411;53.016;18.632;2023-07-29T11:08:21;1.45;;;0.20;;
36379;SDS011;22411;53.016;18.632;2023-07-29T11:10:58;0.90;;;0.20;;
36379;SDS011;22411;53.016;18.632;2023-07-29T11:13:28;0.65;;;0.20;;
36379;SDS011;22411;53.016;18.632;2023-07-29T11:15:54;0.47;;;0.20;;
36379;SDS011;22411;53.016;18.632;2023-07-29T11:18:26;1.67;;;0.32;;
36379;SDS011;22411;53.016;18.632;2023-07-29T11:20:57;0.68;;;0.20;;
36379;SDS011;22411;53.016;18.632;2023-07-29T11:26:00;0.90;;;0.20;;
36379;SDS011;22411;53.016;18.632;2023-07-29T11:28:27;0.93;;;0.20;;
36379;SDS011;22411;53.016;18.632;2023-07-29T11:30:56;1.38;;;0.20;;
36379;SDS011;22411;53.016;18.632;2023-07-29T11:33:25;0.68;;;0.30;;
36379;SDS011;22411;53.016;18.632;2023-07-29T11:35:53;1.45;;;0.20;;
36379;SDS011;22411;53.016;18.632;2023-07-29T11:38:21;0.57;;;0.20;;
36379;SDS011;22411;53.016;18.632;2023-07-29T11:41:20;1.77;;;0.20;;
36379;SDS011;22411;53.016;18.632;2023-07-29T11:43:44;0.52;;;0.30;;
36379;SDS011;22411;53.016;18.632;2023-07-29T11:46:10;1.35;;;0.40;;
36379;SDS011;22411;53.016;18.632;2023-07-29T11:48:36;0.57;;;0.20;;
36379;SDS011;22411;53.016;18.632;2023-07-29T11:51:02;0.50;;;0.20;;
36379;SDS011;22411;53.016;18.632;2023-07-29T11:53:29;0.60;;;0.20;;
36379;SDS011;22411;53.016;18.632;2023-07-29T11:55:55;1.20;;;0.20;;
36379;SDS011;22411;53.016;18.632;2023-07-29T11:58:21;0.70;;;0.20;;
36379;SDS011;22411;53.016;18.632;2023-07-29T12:00:47;1.02;;;0.13;;
36379;SDS011;22411;53.016;18.632;2023-07-29T12:03:14;0.30;;;0.10;;
36379;SDS011;22411;53.016;18.632;2023-07-29T12:05:41;0.65;;;0.20;;
36379;SDS011;22411;53.016;18.632;2023-07-29T12:08:07;1.52;;;0.30;;
36379;SDS011;22411;53.016;18.632;2023-07-29T12:10:34;2.80;;;0.10;;
36379;SDS011;22411;53.016;18.632;2023-07-29T12:13:01;0.43;;;0.10;;
36379;SDS011;22411;53.016;18.632;2023-07-29T12:15:28;0.80;;;0.20;;
36379;SDS011;22411;53.016;18.632;2023-07-29T12:17:58;3.20;;;0.20;;
36379;SDS011;22411;53.016;18.632;2023-07-29T12:20:25;0.80;;;0.20;;
36379;SDS011;22411;53.016;18.632;2023-07-29T12:22:53;0.55;;;0.20;;
36379;SDS011;22411;53.016;18.632;2023-07-29T12:25:19;0.52;;;0.20;;
36379;SDS011;22411;53.016;18.632;2023-07-29T12:27:46;0.63;;;0.20;;
36379;SDS011;22411;53.016;18.632;2023-07-29T12:30:12;1.05;;;0.50;;
36379;SDS011;22411;53.016;18.632;2023-07-29T12:32:44;1.90;;;0.20;;
36379;SDS011;22411;53.016;18.632;2023-07-29T12:35:11;1.30;;;0.10;;
36379;SDS011;22411;53.016;18.632;2023-07-29T12:37:37;1.70;;;0.80;;
36379;SDS011;22411;53.016;18.632;2023-07-29T12:40:04;1.85;;;0.20;;
36379;SDS011;22411;53.016;18.632;2023-07-29T12:42:30;0.50;;;0.10;;
36379;SDS011;22411;53.016;18.632;2023-07-29T12:44:56;0.60;;;0.30;;
36379;SDS011;22411;53.016;18.632;2023-07-29T12:47:21;0.65;;;0.22;;
36379;SDS011;22411;53.016;18.632;2023-07-29T12:49:47;0.50;;;0.20;;
36379;SDS011;22411;53.016;18.632;2023-07-29T12:52:13;1.10;;;0.20;;
36379;SDS011;22411;53.016;18.632;2023-07-29T12:54:38;1.08;;;0.20;;
36379;SDS011;22411;53.016;18.632;2023-07-29T12:57:06;0.63;;;0.30;;
36379;SDS011;22411;53.016;18.632;2023-07-29T12:59:31;0.52;;;0.20;;
36379;SDS011;22411;53.016;18.632;2023-07-29T13:01:57;2.35;;;0.22;;
36379;SDS011;22411;53.016;18.632;2023-07-29T13:04:22;0.50;;;0.20;;
36379;SDS011;22411;53.016;18.632;2023-07-29T13:06:48;0.95;;;0.20;;
36379;SDS011;22411;53.016;18.632;2023-07-29T13:09:14;1.02;;;0.30;;
36379;SDS011;22411;53.016;18.632;2023-07-29T13:11:39;1.63;;;0.35;;
36379;SDS011;22411;53.016;18.632;2023-07-29T13:14:05;0.77;;;0.30;;
36379;SDS011;22411;53.016;18.632;2023-07-29T13:16:31;0.50;;;0.20;;
36379;SDS011;22411;53.016;18.632;2023-07-29T13:18:57;1.25;;;0.17;;
36379;SDS011;22411;53.016;18.632;2023-07-29T13:21:23;1.10;;;0.65;;
36379;SDS011;22411;53.016;18.632;2023-07-29T13:23:49;0.50;;;0.20;;
36379;SDS011;22411;53.016;18.632;2023-07-29T13:26:14;0.40;;;0.20;;
36379;SDS011;22411;53.016;18.632;2023-07-29T13:28:40;1.50;;;0.52;;
36379;SDS011;22411;53.016;18.632;2023-07-29T13:31:06;0.70;;;0.32;;
36379;SDS011;22411;53.016;18.632;2023-07-29T13:33:31;0.57;;;0.20;;
36379;SDS011;22411;53.016;18.632;2023-07-29T13:36:00;0.45;;;0.20;;
36379;SDS011;22411;53.016;18.632;2023-07-29T13:38:27;0.90;;;0.40;;
36379;SDS011;22411;53.016;18.632;2023-07-29T13:40:53;0.80;;;0.30;;
36379;SDS011;22411;53.016;18.632;2023-07-29T13:43:19;0.60;;;0.20;;
36379;SDS011;22411;53.016;18.632;2023-07-29T13:45:45;0.68;;;0.30;;
36379;SDS011;22411;53.016;18.632;2023-07-29T13:48:10;0.82;;;0.20;;
36379;SDS011;22411;53.016;18.632;2023-07-29T13:50:36;0.80;;;0.30;;
36379;SDS011;22411;53.016;18.632;2023-07-29T13:53:01;0.93;;;0.30;;
36379;SDS011;22411;53.016;18.632;2023-07-29T13:55:27;1.13;;;0.30;;
36379;SDS011;22411;53.016;18.632;2023-07-29T13:57:53;0.55;;;0.28;;
36379;SDS011;22411;53.016;18.632;2023-07-29T14:00:19;0.90;;;0.20;;
36379;SDS011;22411;53.016;18.632;2023-07-29T14:02:45;1.08;;;0.30;;
36379;SDS011;22411;53.016;18.632;2023-07-29T14:05:11;0.50;;;0.20;;
36379;SDS011;22411;53.016;18.632;2023-07-29T14:07:37;0.57;;;0.30;;
36379;SDS011;22411;53.016;18.632;2023-07-29T14:10:03;2.45;;;0.60;;
36379;SDS011;22411;53.016;18.632;2023-07-29T14:12:29;0.60;;;0.30;;
36379;SDS011;22411;53.016;18.632;2023-07-29T14:14:55;0.50;;;0.30;;
36379;SDS011;22411;53.016;18.632;2023-07-29T14:17:20;0.60;;;0.30;;
36379;SDS011;22411;53.016;18.632;2023-07-29T14:19:46;0.60;;;0.20;;
36379;SDS011;22411;53.016;18.632;2023-07-29T14:22:11;1.52;;;0.30;;
36379;SDS011;22411;53.016;18.632;2023-07-29T14:24:37;6.18;;;0.57;;
36379;SDS011;22411;53.016;18.632;2023-07-29T14:27:03;1.17;;;0.50;;
36379;SDS011;22411;53.016;18.632;2023-07-29T14:29:29;2.83;;;0.43;;
36379;SDS011;22411;53.016;18.632;2023-07-29T14:31:54;1.45;;;0.30;;
36379;SDS011;22411;53.016;18.632;2023-07-29T14:34:20;1.05;;;0.30;;
36379;SDS011;22411;53.016;18.632;2023-07-29T14:36:45;2.42;;;0.35;;
36379;SDS011;22411;53.016;18.632;2023-07-29T14:39:11;0.73;;;0.30;;